Time;durP1;ratioP1;P1;durP2;ratioP2;P2;SDS_P1;SDS_P2;PMS_P1;PMS_P2;Temp;Humidity;BMP_temperature;BMP_pressure;BME280_temperature;BME280_humidity;BME280_pressure;Samples;Min_cycle;Max_cycle;Signal;HPM_P1;HPM_P2
2022/08/09 00:01:20;;;;;;;2.57;2.37;;;25.90;31.60;;;;;;5097985;28;20455;-85
2022/08/09 00:03:47;;;;;;;3.30;3.10;;;25.90;30.70;;;;;;5102738;28;20469;-86
2022/08/09 00:06:14;;;;;;;3.33;2.27;;;25.80;31.10;;;;;;5059765;28;20451;-86
2022/08/09 00:08:47;;;;;;;2.60;2.40;;;25.80;31.20;;;;;;5078488;28;20574;-85
2022/08/09 00:11:15;;;;;;;2.00;1.90;;;25.70;31.30;;;;;;5084858;28;20435;-86
2022/08/09 00:13:41;;;;;;;6.73;2.70;;;25.70;31.60;;;;;;5098252;28;20439;-86
2022/08/09 00:16:08;;;;;;;2.43;2.23;;;25.70;30.80;;;;;;5076202;28;20455;-86
2022/08/09 00:18:35;;;;;;;2.80;1.83;;;25.60;31.50;;;;;;5093953;28;20486;-86
2022/08/09 00:21:03;;;;;;;3.60;2.40;;;25.60;32.10;;;;;;5097807;28;20466;-85
2022/08/09 00:23:30;;;;;;;2.40;2.27;;;25.60;32.00;;;;;;5086602;28;20459;-84
2022/08/09 00:25:59;;;;;;;3.20;2.33;;;25.50;32.00;;;;;;5095058;28;20455;-86
2022/08/09 00:28:26;;;;;;;6.07;2.37;;;25.40;32.30;;;;;;5082893;28;20478;-85
2022/08/09 00:30:55;;;;;;;2.40;2.20;;;25.40;32.50;;;;;;5067992;28;20455;-86
2022/08/09 00:33:22;;;;;;;2.60;2.40;;;25.30;32.50;;;;;;5102467;28;20450;-86
2022/08/09 00:35:49;;;;;;;4.53;2.37;;;25.30;32.70;;;;;;5078676;28;20821;-86
2022/08/09 00:38:16;;;;;;;5.20;2.37;;;25.30;32.90;;;;;;5061611;28;20455;-86
2022/08/09 00:40:44;;;;;;;2.70;2.27;;;25.30;33.10;;;;;;5067847;28;20458;-86
2022/08/09 00:43:13;;;;;;;2.47;2.27;;;25.30;32.70;;;;;;5078063;28;20454;-86
2022/08/09 00:45:40;;;;;;;2.63;2.43;;;25.20;32.50;;;;;;5041691;28;20970;-86
2022/08/09 00:48:07;;;;;;;2.47;2.27;;;25.20;32.50;;;;;;5093702;28;20921;-86
2022/08/09 00:50:34;;;;;;;4.07;2.50;;;25.20;32.50;;;;;;5050512;28;20447;-86
2022/08/09 00:53:01;;;;;;;3.03;2.30;;;25.20;32.20;;;;;;5075854;28;20443;-85
2022/08/09 00:55:28;;;;;;;4.30;2.37;;;25.10;32.30;;;;;;5050864;28;20447;-86
2022/08/09 00:57:57;;;;;;;4.17;2.10;;;25.10;32.40;;;;;;5062849;28;20466;-86
2022/08/09 01:00:26;;;;;;;2.13;1.93;;;25.00;31.80;;;;;;5092935;28;20455;-86
2022/08/09 01:03:03;;;;;;;2.27;1.90;;;25.00;32.60;;;;;;5076463;28;20452;-84
2022/08/09 01:05:36;;;;;;;2.20;2.00;;;25.00;33.00;;;;;;5050451;28;20584;-86
2022/08/09 01:08:08;;;;;;;2.73;2.07;;;25.00;32.70;;;;;;5085346;28;20562;-86
2022/08/09 01:10:45;;;;;;;2.07;1.97;;;24.90;32.50;;;;;;5062893;28;20451;-87
2022/08/09 01:13:17;;;;;;;2.93;1.90;;;24.90;32.70;;;;;;5079263;28;20847;-86
2022/08/09 01:15:47;;;;;;;2.20;2.00;;;24.90;32.80;;;;;;5068421;28;20517;-84
2022/08/09 01:18:19;;;;;;;2.43;2.23;;;24.90;32.70;;;;;;5080038;28;20966;-86
2022/08/09 01:20:54;;;;;;;3.03;2.47;;;24.80;32.80;;;;;;5090735;28;20443;-86
2022/08/09 01:23:38;;;;;;;2.97;2.20;;;24.80;32.80;;;;;;5081394;28;20511;-86
2022/08/09 01:26:24;;;;;;;2.50;2.30;;;24.70;32.50;;;;;;5066722;28;20553;-86
2022/08/09 01:28:55;;;;;;;4.13;2.07;;;24.70;32.90;;;;;;5064121;28;20563;-84
2022/08/09 01:31:27;;;;;;;3.30;2.17;;;24.60;32.90;;;;;;5096511;28;20451;-86
2022/08/09 01:33:58;;;;;;;3.73;2.30;;;24.60;33.00;;;;;;5063774;28;20524;-87
2022/08/09 01:36:29;;;;;;;3.10;2.20;;;24.60;33.00;;;;;;5098127;28;20931;-85
2022/08/09 01:38:56;;;;;;;3.03;2.73;;;24.50;33.10;;;;;;5069647;28;20479;-85
2022/08/09 01:41:25;;;;;;;2.20;2.00;;;24.50;33.20;;;;;;5084944;28;21014;-86
2022/08/09 01:43:56;;;;;;;2.07;1.97;;;24.50;32.90;;;;;;5079208;28;21204;-85
2022/08/09 01:46:24;;;;;;;2.90;1.97;;;24.50;33.30;;;;;;5102640;28;20453;-86
2022/08/09 01:48:54;;;;;;;2.57;2.10;;;24.40;33.20;;;;;;5088837;28;20498;-86
2022/08/09 01:51:22;;;;;;;1.90;1.80;;;24.40;33.40;;;;;;5049639;28;20543;-87
2022/08/09 01:53:51;;;;;;;4.57;2.30;;;24.40;33.20;;;;;;5063269;28;20461;-86
2022/08/09 01:56:19;;;;;;;4.20;2.40;;;24.30;33.40;;;;;;5046806;28;20880;-85
2022/08/09 01:58:49;;;;;;;2.73;2.53;;;24.30;33.70;;;;;;5070614;28;20459;-86
2022/08/09 02:01:18;;;;;;;2.23;2.03;;;24.30;34.50;;;;;;5057641;28;20435;-86
2022/08/09 02:03:47;;;;;;;2.50;2.30;;;24.20;33.70;;;;;;5053068;28;20446;-86
2022/08/09 02:06:16;;;;;;;2.03;1.90;;;24.10;33.50;;;;;;5078149;28;20952;-86
2022/08/09 02:08:45;;;;;;;2.63;2.43;;;24.10;33.50;;;;;;5071442;28;20524;-87
2022/08/09 02:11:14;;;;;;;2.87;2.00;;;24.10;33.40;;;;;;5097753;28;20490;-85
2022/08/09 02:13:42;;;;;;;2.90;2.40;;;24.00;33.10;;;;;;5059587;28;20970;-87
2022/08/09 02:16:11;;;;;;;8.30;1.90;;;24.00;33.30;;;;;;5077828;28;21076;-86
2022/08/09 02:18:41;;;;;;;2.70;2.10;;;23.90;33.50;;;;;;5078626;28;20558;-86
2022/08/09 02:21:11;;;;;;;2.33;2.13;;;23.90;33.90;;;;;;5077409;28;20578;-87
2022/08/09 02:23:41;;;;;;;2.20;2.00;;;23.90;34.00;;;;;;5081542;28;20458;-86
2022/08/09 02:26:12;;;;;;;2.50;2.30;;;23.90;34.70;;;;;;5080451;28;20446;-87
2022/08/09 02:28:41;;;;;;;5.30;2.10;;;23.80;35.40;;;;;;5057923;28;20807;-87
2022/08/09 02:31:12;;;;;;;2.33;2.10;;;23.80;35.70;;;;;;5075639;28;20467;-87
2022/08/09 02:33:44;;;;;;;4.00;2.50;;;23.80;35.50;;;;;;5071611;28;20555;-87
2022/08/09 02:36:17;;;;;;;2.37;2.17;;;23.70;34.60;;;;;;5075219;28;20466;-86
2022/08/09 02:38:48;;;;;;;2.63;2.43;;;23.70;34.70;;;;;;5081201;28;20468;-87
2022/08/09 02:41:17;;;;;;;15.13;3.00;;;23.60;34.90;;;;;;5047857;28;20447;-86
2022/08/09 02:43:47;;;;;;;5.90;2.53;;;23.60;34.60;;;;;;5082067;28;20458;-87
2022/08/09 02:46:17;;;;;;;3.63;2.23;;;23.50;34.80;;;;;;5094946;28;20438;-86
2022/08/09 02:48:47;;;;;;;2.33;2.13;;;23.50;34.80;;;;;;5065718;28;20475;-86
2022/08/09 02:51:18;;;;;;;2.70;2.47;;;23.40;34.60;;;;;;5077578;28;20450;-86
2022/08/09 02:53:49;;;;;;;2.90;2.00;;;23.50;34.50;;;;;;5083252;28;20455;-86
2022/08/09 02:56:18;;;;;;;2.63;2.43;;;23.40;35.10;;;;;;5079130;28;20447;-85
2022/08/09 02:58:47;;;;;;;2.93;2.73;;;23.40;36.20;;;;;;5087917;28;20521;-87
2022/08/09 03:01:16;;;;;;;4.37;2.80;;;23.40;37.30;;;;;;5094745;28;21280;-86
2022/08/09 03:03:45;;;;;;;3.07;2.80;;;23.40;38.90;;;;;;5097560;28;20465;-86
2022/08/09 03:06:14;;;;;;;3.30;2.50;;;23.40;39.70;;;;;;5096372;28;20456;-86
2022/08/09 03:08:44;;;;;;;2.80;2.60;;;23.30;39.00;;;;;;5065044;28;20480;-86
2022/08/09 03:11:13;;;;;;;3.70;2.70;;;23.30;37.30;;;;;;5064259;28;20672;-86
2022/08/09 03:13:41;;;;;;;3.13;2.43;;;23.30;36.30;;;;;;5060647;28;20446;-87
2022/08/09 03:16:09;;;;;;;2.47;2.23;;;23.20;36.00;;;;;;5095794;28;20447;-86
2022/08/09 03:18:36;;;;;;;2.70;2.50;;;23.20;36.30;;;;;;5098129;28;20467;-86
2022/08/09 03:21:06;;;;;;;2.67;2.47;;;23.20;37.50;;;;;;5080353;28;20501;-88
2022/08/09 03:23:33;;;;;;;4.33;2.80;;;23.10;38.90;;;;;;5094637;28;20455;-86
2022/08/09 03:26:01;;;;;;;3.23;2.57;;;23.10;39.80;;;;;;5083340;28;20927;-86
2022/08/09 03:28:29;;;;;;;2.50;2.30;;;23.10;39.70;;;;;;5100703;28;20475;-86
2022/08/09 03:30:57;;;;;;;2.80;2.40;;;23.00;37.80;;;;;;5096598;28;20443;-86
2022/08/09 03:33:26;;;;;;;2.33;2.13;;;22.90;36.70;;;;;;5098616;28;20448;-86
2022/08/09 03:35:53;;;;;;;2.67;2.47;;;22.90;36.90;;;;;;5076250;28;21012;-84
2022/08/09 03:38:22;;;;;;;2.87;2.57;;;22.90;36.60;;;;;;5100418;28;20478;-86
2022/08/09 03:40:49;;;;;;;2.90;2.70;;;22.90;36.80;;;;;;5074997;28;20864;-86
2022/08/09 03:46:57;;;;;;;2.53;2.33;;;22.80;36.70;;;;;;5096597;28;20972;-86
2022/08/09 03:49:27;;;;;;;2.17;1.97;;;22.80;36.70;;;;;;5059552;28;20455;-87
2022/08/09 03:51:57;;;;;;;2.77;2.53;;;22.80;37.10;;;;;;5067193;28;20459;-87
2022/08/09 03:54:29;;;;;;;2.57;2.37;;;22.80;37.20;;;;;;5075539;28;20455;-87
2022/08/09 03:56:57;;;;;;;3.67;3.20;;;22.80;37.50;;;;;;5086681;28;20474;-86
2022/08/09 03:59:24;;;;;;;4.30;2.73;;;22.70;37.50;;;;;;5084399;28;20828;-86
2022/08/09 04:01:52;;;;;;;3.50;3.20;;;22.70;37.80;;;;;;5079594;28;21020;-86
2022/08/09 04:04:20;;;;;;;4.10;2.60;;;22.70;37.80;;;;;;5094596;28;20946;-86
2022/08/09 04:06:47;;;;;;;4.80;2.60;;;22.70;38.00;;;;;;5061730;28;20500;-86
2022/08/09 04:09:14;;;;;;;3.63;2.87;;;22.60;38.10;;;;;;5076205;28;20470;-87
2022/08/09 04:12:02;;;;;;;5.70;2.63;;;22.60;38.30;;;;;;5061143;28;20779;-86
2022/08/09 04:14:30;;;;;;;3.47;2.53;;;22.60;38.50;;;;;;5075642;28;20470;-86
2022/08/09 04:16:57;;;;;;;3.37;2.93;;;22.60;38.90;;;;;;5073314;28;20454;-87
2022/08/09 04:19:24;;;;;;;2.50;2.30;;;22.50;39.00;;;;;;5062537;28;20464;-86
2022/08/09 04:21:51;;;;;;;4.73;3.17;;;22.50;39.00;;;;;;5060117;28;21026;-86
2022/08/09 04:24:18;;;;;;;2.63;2.43;;;22.50;39.10;;;;;;5058705;28;20463;-88
2022/08/09 04:26:45;;;;;;;3.90;2.93;;;22.50;39.30;;;;;;5081376;28;20451;-86
2022/08/09 04:29:14;;;;;;;14.23;3.60;;;22.50;39.20;;;;;;5067286;28;20478;-87
2022/08/09 04:31:41;;;;;;;2.63;2.43;;;22.50;39.40;;;;;;5057776;28;20448;-86
2022/08/09 04:34:08;;;;;;;4.47;2.90;;;22.50;39.40;;;;;;5061995;28;20455;-86
2022/08/09 04:36:35;;;;;;;4.10;2.80;;;22.40;39.50;;;;;;5074286;28;20451;-86
2022/08/09 04:39:04;;;;;;;2.80;2.60;;;22.40;39.90;;;;;;5058650;28;20571;-87
2022/08/09 04:41:34;;;;;;;3.80;2.90;;;22.40;40.60;;;;;;5057054;28;20444;-85
2022/08/09 04:56:23;;;;;;;3.30;2.90;;;22.20;41.50;;;;;;5050648;28;20978;-87
2022/08/09 04:58:50;;;;;;;3.70;3.43;;;22.20;42.10;;;;;;5047988;28;20518;-86
2022/08/09 05:01:17;;;;;;;3.33;3.00;;;22.20;43.30;;;;;;5041859;28;21174;-87
2022/08/09 05:03:44;;;;;;;3.30;3.00;;;22.20;43.80;;;;;;5064015;28;21024;-86
2022/08/09 05:06:11;;;;;;;3.37;3.17;;;22.30;44.00;;;;;;5068821;28;20484;-87
2022/08/09 05:08:38;;;;;;;3.67;3.37;;;22.20;43.30;;;;;;5045715;28;21179;-87
2022/08/09 05:11:06;;;;;;;3.30;3.00;;;22.30;43.10;;;;;;5068176;28;20452;-88
2022/08/09 05:13:35;;;;;;;3.00;2.70;;;22.40;43.00;;;;;;5070798;28;20462;-88
2022/08/09 05:16:02;;;;;;;5.80;3.50;;;22.40;43.50;;;;;;5091782;28;20457;-88
2022/08/09 05:18:30;;;;;;;3.27;3.03;;;22.40;43.50;;;;;;5044677;28;20508;-88
2022/08/09 05:20:58;;;;;;;3.00;2.80;;;22.40;43.60;;;;;;5052809;28;20946;-88
2022/08/09 05:23:25;;;;;;;5.53;3.17;;;22.40;43.40;;;;;;5070897;28;20439;-88
2022/08/09 05:25:52;;;;;;;3.13;2.83;;;22.40;43.50;;;;;;5060341;28;20455;-88
2022/08/09 05:28:20;;;;;;;3.80;3.47;;;22.40;44.00;;;;;;5091928;28;20474;-88
2022/08/09 05:30:48;;;;;;;4.13;3.70;;;22.40;44.60;;;;;;5059230;28;20856;-89
2022/08/09 05:33:15;;;;;;;3.77;3.40;;;22.40;44.40;;;;;;5056511;28;20447;-89
2022/08/09 05:35:43;;;;;;;4.67;2.70;;;22.50;44.30;;;;;;5051526;28;20452;-89
2022/08/09 05:38:10;;;;;;;3.40;3.03;;;22.50;43.90;;;;;;5091223;28;20467;-87
2022/08/09 05:40:37;;;;;;;3.80;3.07;;;22.50;43.90;;;;;;5081287;28;20439;-89
2022/08/09 05:43:04;;;;;;;3.40;3.10;;;22.50;44.10;;;;;;5063590;28;20457;-88
2022/08/09 05:45:31;;;;;;;7.70;2.97;;;22.50;44.30;;;;;;5053312;28;20447;-88
2022/08/09 05:47:59;;;;;;;3.93;3.63;;;22.50;44.70;;;;;;5074641;28;20470;-89
2022/08/09 05:50:26;;;;;;;4.97;3.00;;;22.50;45.20;;;;;;5072630;28;21340;-89
2022/08/09 05:52:53;;;;;;;3.70;3.10;;;22.60;45.00;;;;;;5074749;28;20446;-86
2022/08/09 05:55:20;;;;;;;5.20;3.30;;;22.60;44.50;;;;;;5091308;28;20447;-88
2022/08/09 06:10:14;;;;;;;3.30;3.00;;;22.50;42.50;;;;;;5056177;28;20451;-87
2022/08/09 06:12:42;;;;;;;4.67;3.40;;;22.50;42.60;;;;;;5058385;28;20439;-89
2022/08/09 06:15:09;;;;;;;4.23;3.63;;;22.60;43.00;;;;;;5070292;28;20552;-87
2022/08/09 06:17:36;;;;;;;11.17;3.80;;;22.70;43.20;;;;;;5076377;28;20482;-89
2022/08/09 06:20:04;;;;;;;10.87;3.80;;;22.60;43.50;;;;;;5073855;28;20953;-87
2022/08/09 06:22:31;;;;;;;10.90;3.80;;;22.70;43.70;;;;;;5054226;28;20439;-88
2022/08/09 06:24:58;;;;;;;7.53;3.67;;;22.90;43.80;;;;;;5095314;28;20569;-89
2022/08/09 06:27:26;;;;;;;9.40;3.10;;;23.10;43.50;;;;;;5098390;28;20466;-89
2022/08/09 06:29:53;;;;;;;23.37;4.50;;;23.20;42.90;;;;;;5065257;28;20497;-90
2022/08/09 06:32:20;;;;;;;24.70;4.73;;;23.30;41.90;;;;;;5075130;28;21351;-88
2022/08/09 06:34:47;;;;;;;21.87;5.03;;;23.40;41.00;;;;;;5093622;28;20507;-88
2022/08/09 06:37:14;;;;;;;35.60;5.43;;;23.50;40.30;;;;;;5070593;28;20476;-88
2022/08/09 06:39:41;;;;;;;24.00;4.53;;;23.60;40.30;;;;;;5067441;28;20455;-88
2022/08/09 06:42:08;;;;;;;21.87;5.57;;;23.70;40.20;;;;;;5066918;28;20966;-90
2022/08/09 06:44:36;;;;;;;29.00;4.67;;;23.80;40.50;;;;;;5075766;28;20467;-88
2022/08/09 06:47:03;;;;;;;14.50;4.07;;;23.90;40.10;;;;;;5086044;28;20443;-87
2022/08/09 06:49:30;;;;;;;14.10;3.73;;;24.10;40.40;;;;;;5074300;28;21009;-89
2022/08/09 06:51:57;;;;;;;14.70;3.80;;;24.30;39.60;;;;;;5092767;28;20824;-88
2022/08/09 06:54:24;;;;;;;16.30;3.70;;;24.30;38.30;;;;;;5074806;28;20816;-87
2022/08/09 06:56:51;;;;;;;11.70;3.90;;;24.40;39.90;;;;;;5073836;28;20976;-87
2022/08/09 06:59:18;;;;;;;10.60;3.63;;;24.60;39.10;;;;;;5073624;28;21121;-89
2022/08/09 07:01:47;;;;;;;17.77;3.90;;;24.70;39.10;;;;;;5093233;28;20455;-88
2022/08/09 07:04:14;;;;;;;18.47;3.60;;;24.80;39.10;;;;;;5083057;28;20589;-89
2022/08/09 07:06:41;;;;;;;19.40;4.17;;;25.00;39.20;;;;;;5082573;28;20492;-88
2022/08/09 07:09:08;;;;;;;11.40;3.43;;;25.10;38.20;;;;;;5094350;28;20466;-88
2022/08/09 07:11:35;;;;;;;19.47;3.90;;;25.30;37.90;;;;;;5048352;28;20475;-89
2022/08/09 07:14:02;;;;;;;8.60;3.50;;;25.40;36.90;;;;;;5100333;28;20451;-88
2022/08/09 07:16:29;;;;;;;5.80;3.07;;;25.60;37.00;;;;;;5051728;28;20465;-89
2022/08/09 07:18:58;;;;;;;7.80;4.00;;;25.70;36.90;;;;;;5081697;28;20460;-88
2022/08/09 07:21:25;;;;;;;7.43;3.00;;;25.90;36.30;;;;;;5073989;28;20483;-89
2022/08/09 07:23:52;;;;;;;16.03;4.00;;;25.90;36.20;;;;;;5078994;28;20458;-88
2022/08/09 07:26:19;;;;;;;11.13;3.70;;;26.10;35.60;;;;;;5093309;28;20449;-88
2022/08/09 07:28:47;;;;;;;13.47;3.67;;;26.20;35.10;;;;;;5077336;28;20468;-87
2022/08/09 07:31:13;;;;;;;6.60;3.80;;;26.30;35.20;;;;;;5093090;28;20470;-88
2022/08/09 07:33:40;;;;;;;13.33;3.13;;;26.30;35.00;;;;;;5071998;28;20455;-89
2022/08/09 07:36:09;;;;;;;4.13;2.67;;;26.50;35.50;;;;;;5072709;28;20908;-87
2022/08/09 07:38:36;;;;;;;5.77;3.13;;;26.50;35.10;;;;;;5064143;28;20471;-89
2022/08/09 07:41:03;;;;;;;6.10;3.60;;;26.50;34.70;;;;;;5074278;28;20436;-88
2022/08/09 07:43:30;;;;;;;9.13;3.07;;;26.50;34.90;;;;;;5069400;28;20474;-86
2022/08/09 07:45:57;;;;;;;6.03;2.43;;;26.60;33.50;;;;;;5052863;28;20451;-87
2022/08/09 07:48:24;;;;;;;3.03;2.20;;;26.80;33.60;;;;;;5062861;28;20483;-88
2022/08/09 07:50:51;;;;;;;10.23;2.70;;;26.90;31.60;;;;;;5065771;28;20560;-87
2022/08/09 07:53:20;;;;;;;2.80;2.63;;;26.80;33.40;;;;;;5070141;28;20456;-88
2022/08/09 07:55:46;;;;;;;6.93;2.10;;;26.80;32.20;;;;;;5085675;28;20454;-88
2022/08/09 07:58:13;;;;;;;7.53;2.23;;;27.00;31.70;;;;;;5084496;28;20474;-88
2022/08/09 08:00:41;;;;;;;2.67;2.27;;;27.20;31.10;;;;;;5071312;28;20469;-88
2022/08/09 08:07:15;;;;;;;2.70;2.10;;;27.60;31.20;;;;;;5065348;28;20435;-87
2022/08/09 08:09:44;;;;;;;2.40;1.90;;;27.70;30.40;;;;;;5056142;28;20454;-88
2022/08/09 08:12:11;;;;;;;3.20;1.93;;;27.90;30.80;;;;;;5069735;28;20446;-88
2022/08/09 08:14:38;;;;;;;3.53;2.70;;;28.00;30.00;;;;;;5067537;28;20455;-87
2022/08/09 08:17:05;;;;;;;5.53;2.07;;;28.20;29.90;;;;;;5066435;28;20455;-87
2022/08/09 08:19:32;;;;;;;3.40;2.10;;;28.50;29.90;;;;;;5087651;28;20435;-88
2022/08/09 08:21:59;;;;;;;3.20;2.00;;;28.50;29.30;;;;;;5053026;28;21240;-88
2022/08/09 08:24:26;;;;;;;5.50;2.07;;;28.60;29.30;;;;;;5054278;28;20468;-87
2022/08/09 08:26:54;;;;;;;2.30;2.10;;;28.70;29.40;;;;;;5088688;28;21007;-88
2022/08/09 08:29:21;;;;;;;5.37;2.00;;;28.70;29.00;;;;;;5065094;28;20928;-88
2022/08/09 08:31:48;;;;;;;3.27;2.13;;;28.80;28.90;;;;;;5072175;28;20879;-87
2022/08/09 08:34:15;;;;;;;2.23;2.03;;;28.90;29.00;;;;;;5066835;28;20444;-88
2022/08/09 08:36:42;;;;;;;2.30;2.10;;;29.00;28.30;;;;;;5069541;28;20573;-87
2022/08/09 08:39:10;;;;;;;3.30;1.80;;;29.10;28.50;;;;;;5067762;28;20476;-86
2022/08/09 08:41:38;;;;;;;4.23;2.10;;;29.10;27.70;;;;;;5059251;28;20431;-87
2022/08/09 08:44:08;;;;;;;3.00;1.70;;;29.30;28.10;;;;;;5062764;28;20482;-89
2022/08/09 08:46:39;;;;;;;3.10;1.90;;;29.30;27.70;;;;;;5069376;28;20450;-88
2022/08/09 08:49:07;;;;;;;1.70;1.60;;;29.50;27.70;;;;;;5075553;28;20593;-89
2022/08/09 08:51:34;;;;;;;4.60;2.00;;;29.70;27.70;;;;;;5035870;28;20475;-88
2022/08/09 08:54:06;;;;;;;2.87;2.20;;;29.80;27.20;;;;;;5056912;28;20985;-88
2022/08/09 08:56:58;;;;;;;2.67;2.30;;;29.90;26.60;;;;;;5082103;28;20451;-89
2022/08/09 09:00:16;;;;;;;2.07;1.87;;;29.90;26.70;;;;;;5046761;28;20459;-88
2022/08/09 09:02:48;;;;;;;3.50;1.97;;;30.00;26.10;;;;;;5050814;28;21233;-87
2022/08/09 09:05:22;;;;;;;2.83;2.30;;;30.20;26.30;;;;;;5070369;28;20446;-86
2022/08/09 09:07:50;;;;;;;5.43;2.00;;;30.30;26.30;;;;;;5075840;28;20513;-87
2022/08/09 09:10:18;;;;;;;1.67;1.57;;;30.30;25.00;;;;;;5062653;28;21006;-87
2022/08/09 09:12:48;;;;;;;4.60;2.50;;;30.30;25.10;;;;;;5082799;28;20454;-87
2022/08/09 09:15:16;;;;;;;3.63;1.90;;;30.40;25.60;;;;;;5047048;28;21266;-86
2022/08/09 09:17:42;;;;;;;2.33;1.93;;;30.40;25.70;;;;;;5052023;28;20575;-87
2022/08/09 09:20:13;;;;;;;6.53;2.50;;;30.70;25.40;;;;;;5051125;28;20456;-86
2022/08/09 09:22:51;;;;;;;2.73;2.30;;;30.70;24.40;;;;;;5068591;28;20452;-86
2022/08/09 09:25:32;;;;;;;3.00;2.00;;;30.70;24.40;;;;;;5068003;28;20955;-87
2022/08/09 09:27:59;;;;;;;3.73;2.10;;;30.90;24.40;;;;;;5037593;28;21186;-86
2022/08/09 09:30:26;;;;;;;4.07;1.97;;;31.10;24.50;;;;;;5090625;28;21037;-87
2022/08/09 09:33:07;;;;;;;2.40;2.20;;;31.20;24.20;;;;;;5073959;28;20451;-86
2022/08/09 09:35:52;;;;;;;2.93;2.00;;;31.50;24.10;;;;;;5091009;28;21005;-86
2022/08/09 09:38:22;;;;;;;3.23;2.43;;;31.70;24.20;;;;;;5080892;28;20478;-89
2022/08/09 09:40:49;;;;;;;2.10;2.00;;;31.70;23.60;;;;;;5069699;28;20450;-88
2022/08/09 09:43:19;;;;;;;2.43;2.23;;;31.70;23.40;;;;;;5081000;28;20442;-88
2022/08/09 09:45:48;;;;;;;4.00;1.90;;;31.70;23.90;;;;;;5072707;28;20459;-88
2022/08/09 09:48:16;;;;;;;2.67;2.20;;;31.70;23.50;;;;;;5054660;28;21357;-88
2022/08/09 09:50:46;;;;;;;5.70;2.37;;;31.90;23.40;;;;;;5090835;28;20463;-88
2022/08/09 09:53:15;;;;;;;2.10;1.80;;;32.10;23.00;;;;;;5071328;28;20456;-87
2022/08/09 09:55:57;;;;;;;2.57;2.37;;;32.40;23.80;;;;;;5091252;28;20454;-89
2022/08/09 09:58:24;;;;;;;2.40;2.20;;;32.70;23.50;;;;;;5093368;28;20469;-87
2022/08/09 10:00:54;;;;;;;2.90;1.93;;;32.90;22.40;;;;;;5072706;28;21112;-88
2022/08/09 10:03:40;;;;;;;4.07;2.80;;;33.00;23.70;;;;;;5092405;28;20459;-87
2022/08/09 10:06:09;;;;;;;6.33;2.57;;;32.80;22.10;;;;;;5078221;28;20450;-86
2022/08/09 10:08:36;;;;;;;10.70;2.30;;;32.80;22.50;;;;;;5091770;28;20469;-88
2022/08/09 10:11:19;;;;;;;2.80;2.47;;;32.90;22.20;;;;;;5069681;28;20475;-87
2022/08/09 10:13:47;;;;;;;3.70;2.43;;;33.20;22.80;;;;;;5090128;28;20442;-87
2022/08/09 10:16:14;;;;;;;2.90;2.17;;;33.20;22.10;;;;;;5088816;28;20481;-87
2022/08/09 10:18:50;;;;;;;5.00;2.17;;;33.40;22.60;;;;;;5073849;28;20475;-87
2022/08/09 10:21:19;;;;;;;2.20;2.00;;;33.50;21.90;;;;;;5090932;28;20446;-88
2022/08/09 10:30:21;;;;;;;2.70;2.00;;;33.40;21.70;;;;;;5070426;28;20727;-88
2022/08/09 10:32:50;;;;;;;3.37;1.93;;;33.60;20.90;;;;;;5090796;28;20436;-87
2022/08/09 10:35:17;;;;;;;2.27;2.07;;;33.50;20.60;;;;;;5085718;28;20463;-90
2022/08/09 10:42:44;;;;;;;5.70;1.90;;;33.40;22.10;;;;;;5053943;28;20472;-88
2022/08/09 10:46:02;;;;;;;1.80;1.70;;;33.70;21.20;;;;;;5069498;28;21397;-87
2022/08/09 10:49:06;;;;;;;2.70;2.03;;;33.90;21.10;;;;;;5070046;28;20483;-87
2022/08/09 10:52:23;;;;;;;4.80;2.60;;;34.40;21.30;;;;;;5072049;28;20485;-87
2022/08/09 10:54:52;;;;;;;2.73;2.53;;;34.30;21.50;;;;;;5058910;28;20454;-88
2022/08/09 10:57:20;;;;;;;2.60;1.87;;;34.30;20.20;;;;;;5087397;28;20491;-87
2022/08/09 11:00:37;;;;;;;2.63;1.87;;;34.40;20.70;;;;;;5068040;28;20439;-87
2022/08/09 11:03:19;;;;;;;2.00;1.87;;;34.60;20.30;;;;;;5070709;28;20447;-86
2022/08/09 11:06:19;;;;;;;2.10;1.90;;;34.50;20.20;;;;;;5077468;28;20447;-87
2022/08/09 11:08:47;;;;;;;3.80;2.10;;;34.70;19.70;;;;;;5070897;28;20475;-87
2022/08/09 11:11:14;;;;;;;1.83;1.73;;;34.10;20.60;;;;;;5085354;28;20561;-87
2022/08/09 11:13:41;;;;;;;1.70;1.60;;;34.30;20.30;;;;;;5088268;28;20967;-89
2022/08/09 11:16:35;;;;;;;1.70;1.50;;;34.50;19.80;;;;;;5066752;28;20974;-89
2022/08/09 11:19:55;;;;;;;1.77;1.67;;;34.80;19.50;;;;;;5085940;28;20463;-86
2022/08/09 11:26:40;;;;;;;2.67;2.40;;;35.30;19.60;;;;;;5067095;28;20443;-90
2022/08/09 11:29:08;;;;;;;1.90;1.80;;;35.20;19.00;;;;;;5070246;28;20475;-86
2022/08/09 11:31:46;;;;;;;2.90;2.10;;;35.20;19.50;;;;;;5087851;28;20526;-86
2022/08/09 11:34:24;;;;;;;1.93;1.83;;;35.50;19.50;;;;;;5085898;28;20462;-86
2022/08/09 11:44:47;;;;;;;1.90;1.70;;;35.20;19.70;;;;;;5086432;28;20474;-87
2022/08/09 11:54:41;;;;;;;1.70;1.60;;;35.40;19.60;;;;;;5089458;28;20427;-88
2022/08/09 11:57:36;;;;;;;5.77;1.63;;;34.90;19.10;;;;;;5087038;28;20491;-86
2022/08/09 12:00:30;;;;;;;3.40;2.00;;;34.90;20.00;;;;;;5057302;28;20455;-88
2022/08/09 12:06:49;;;;;;;6.20;1.90;;;35.30;19.20;;;;;;5069053;28;20499;-87
2022/08/09 12:09:16;;;;;;;2.20;1.77;;;35.70;18.80;;;;;;5069514;28;20462;-87
2022/08/09 12:11:43;;;;;;;2.63;1.80;;;36.10;19.50;;;;;;5085557;28;20540;-87
2022/08/09 12:14:14;;;;;;;2.63;2.07;;;36.00;18.70;;;;;;5049237;28;20447;-89
2022/08/09 12:16:43;;;;;;;3.87;1.80;;;35.90;18.50;;;;;;5069370;28;20854;-88
2022/08/09 12:20:02;;;;;;;3.40;1.90;;;35.70;19.40;;;;;;5078991;28;20959;-87
2022/08/09 12:22:58;;;;;;;2.37;1.80;;;36.00;19.00;;;;;;5086515;28;20811;-87
2022/08/09 12:26:16;;;;;;;3.73;1.90;;;36.10;18.80;;;;;;5064484;28;20817;-88
2022/08/09 12:28:47;;;;;;;2.10;2.00;;;35.60;19.00;;;;;;5085062;28;20460;-89
2022/08/09 12:31:19;;;;;;;2.03;1.93;;;35.50;19.80;;;;;;5066683;28;20471;-89
2022/08/09 12:33:47;;;;;;;3.20;2.00;;;35.90;18.90;;;;;;5085465;28;20852;-90
2022/08/09 12:36:15;;;;;;;2.40;2.20;;;36.30;19.10;;;;;;5080751;28;20985;-90
2022/08/09 12:38:42;;;;;;;2.67;2.00;;;36.50;18.80;;;;;;5066807;28;21246;-87
2022/08/09 12:41:12;;;;;;;1.90;1.80;;;36.50;18.10;;;;;;5056674;28;20546;-86
2022/08/09 12:43:41;;;;;;;1.90;1.80;;;36.20;19.20;;;;;;5059775;28;20454;-87
2022/08/09 12:46:16;;;;;;;3.43;1.90;;;36.60;19.30;;;;;;5056511;28;20451;-88
2022/08/09 12:48:44;;;;;;;1.90;1.80;;;36.80;18.50;;;;;;5036257;28;20475;-86
2022/08/09 12:51:12;;;;;;;1.87;1.77;;;36.40;18.40;;;;;;5082419;28;20469;-87
2022/08/09 12:53:40;;;;;;;1.87;1.77;;;36.40;18.90;;;;;;5085709;28;20450;-88
2022/08/09 12:56:33;;;;;;;1.83;1.73;;;36.50;19.10;;;;;;5083915;28;20455;-86
2022/08/09 12:59:06;;;;;;;2.53;2.07;;;36.60;18.70;;;;;;5086078;28;20474;-85
2022/08/09 13:01:34;;;;;;;2.10;1.73;;;36.70;18.60;;;;;;5086932;28;20505;-86
2022/08/09 13:10:13;;;;;;;4.07;1.77;;;36.90;18.10;;;;;;5063938;28;20485;-88
2022/08/09 13:12:47;;;;;;;2.37;1.87;;;37.00;17.90;;;;;;5066909;28;20581;-86
2022/08/09 13:15:14;;;;;;;2.07;1.87;;;37.20;17.80;;;;;;5083850;28;20607;-86
2022/08/09 13:18:32;;;;;;;2.53;1.80;;;37.20;17.80;;;;;;5070517;28;21183;-86
2022/08/09 13:20:59;;;;;;;5.30;1.83;;;36.80;18.60;;;;;;5082205;28;20458;-86
2022/08/09 13:23:41;;;;;;;3.23;1.93;;;35.60;18.10;;;;;;5084740;28;20446;-86
2022/08/09 13:30:17;;;;;;;2.70;1.57;;;35.60;19.50;;;;;;5082476;28;20463;-89
2022/08/09 13:32:47;;;;;;;1.93;1.73;;;36.40;18.80;;;;;;5081891;28;20510;-88
2022/08/09 13:35:17;;;;;;;2.30;2.10;;;36.20;18.40;;;;;;5064238;28;20461;-86
2022/08/09 13:37:44;;;;;;;2.30;2.10;;;36.00;18.30;;;;;;5050219;28;20593;-85
2022/08/09 13:40:15;;;;;;;3.13;2.20;;;36.10;18.40;;;;;;5063027;28;20461;-86
2022/08/09 13:42:42;;;;;;;2.10;2.00;;;36.10;18.70;;;;;;5079600;28;20435;-86
2022/08/09 13:45:10;;;;;;;2.53;2.23;;;36.00;18.50;;;;;;5082001;28;20520;-84
2022/08/09 13:47:41;;;;;;;1.90;1.80;;;35.70;18.80;;;;;;5056253;28;20470;-86
2022/08/09 13:50:11;;;;;;;2.23;2.00;;;35.80;18.30;;;;;;5068095;28;20478;-85
2022/08/09 13:52:38;;;;;;;1.93;1.83;;;35.70;18.80;;;;;;5088257;28;20475;-86
2022/08/09 13:55:06;;;;;;;2.20;2.00;;;35.80;18.70;;;;;;5086181;28;20827;-87
2022/08/09 13:57:37;;;;;;;3.70;2.20;;;35.90;18.90;;;;;;5074887;28;20474;-85
2022/08/09 14:00:06;;;;;;;3.17;2.40;;;36.10;18.70;;;;;;5068146;28;20440;-86
2022/08/09 14:02:38;;;;;;;3.63;2.13;;;36.40;18.80;;;;;;5082254;28;20477;-86
2022/08/09 14:05:06;;;;;;;2.47;2.27;;;36.60;18.50;;;;;;5084717;28;21354;-87
2022/08/09 14:12:06;;;;;;;3.47;1.90;;;36.70;18.00;;;;;;5088701;28;20607;-87
2022/08/09 14:14:35;;;;;;;2.60;2.10;;;35.90;18.40;;;;;;5061644;28;20460;-87
2022/08/09 14:21:59;;;;;;;2.07;1.80;;;36.00;18.10;;;;;;5086930;28;20432;-86
2022/08/09 14:24:26;;;;;;;2.27;1.90;;;36.40;18.50;;;;;;5073374;28;20454;-86
2022/08/09 14:26:52;;;;;;;2.00;1.90;;;36.40;18.10;;;;;;5088424;28;20453;-86
2022/08/09 14:37:38;;;;;;;7.40;2.40;;;36.20;18.40;;;;;;5071593;28;20462;-87
2022/08/09 14:40:56;;;;;;;1.80;1.70;;;35.90;18.40;;;;;;5079031;28;20458;-86